sensor_id;sensor_type;location;lat;lon;timestamp;P1;durP1;ratioP1;P2;durP2;ratioP2
56242;SDS011;42155;53.096;23.226;2023-03-21T00:00:15;42.38;;;23.20;;
56242;SDS011;42155;53.096;23.226;2023-03-21T00:02:16;32.58;;;20.75;;
56242;SDS011;42155;53.096;23.226;2023-03-21T00:04:16;36.67;;;21.85;;
56242;SDS011;42155;53.096;23.226;2023-03-21T00:06:17;42.50;;;23.35;;
56242;SDS011;42155;53.096;23.226;2023-03-21T00:08:21;41.45;;;24.08;;
56242;SDS011;42155;53.096;23.226;2023-03-21T00:10:22;43.28;;;23.50;;
56242;SDS011;42155;53.096;23.226;2023-03-21T00:12:23;38.85;;;22.45;;
56242;SDS011;42155;53.096;23.226;2023-03-21T00:14:23;45.35;;;25.38;;
56242;SDS011;42155;53.096;23.226;2023-03-21T00:16:24;46.15;;;24.92;;
56242;SDS011;42155;53.096;23.226;2023-03-21T00:18:24;44.17;;;24.98;;
56242;SDS011;42155;53.096;23.226;2023-03-21T00:20:26;45.42;;;24.85;;
56242;SDS011;42155;53.096;23.226;2023-03-21T00:22:26;43.38;;;24.10;;
56242;SDS011;42155;53.096;23.226;2023-03-21T00:24:27;45.97;;;24.90;;
56242;SDS011;42155;53.096;23.226;2023-03-21T00:26:27;37.28;;;20.00;;
56242;SDS011;42155;53.096;23.226;2023-03-21T00:28:28;36.83;;;20.50;;
56242;SDS011;42155;53.096;23.226;2023-03-21T00:30:28;37.25;;;20.30;;
56242;SDS011;42155;53.096;23.226;2023-03-21T00:32:28;41.83;;;21.83;;
56242;SDS011;42155;53.096;23.226;2023-03-21T00:34:29;37.55;;;19.90;;
56242;SDS011;42155;53.096;23.226;2023-03-21T00:36:29;33.92;;;19.60;;
56242;SDS011;42155;53.096;23.226;2023-03-21T00:38:30;36.45;;;19.45;;
56242;SDS011;42155;53.096;23.226;2023-03-21T00:40:30;39.92;;;20.70;;
56242;SDS011;42155;53.096;23.226;2023-03-21T00:42:30;34.88;;;18.77;;
56242;SDS011;42155;53.096;23.226;2023-03-21T00:44:31;31.08;;;17.35;;
56242;SDS011;42155;53.096;23.226;2023-03-21T00:46:31;32.10;;;17.88;;
56242;SDS011;42155;53.096;23.226;2023-03-21T00:48:31;38.95;;;20.23;;
56242;SDS011;42155;53.096;23.226;2023-03-21T00:50:32;35.17;;;19.05;;
56242;SDS011;42155;53.096;23.226;2023-03-21T00:52:32;31.58;;;17.10;;
56242;SDS011;42155;53.096;23.226;2023-03-21T00:54:33;30.67;;;17.50;;
56242;SDS011;42155;53.096;23.226;2023-03-21T00:56:34;30.77;;;17.05;;
56242;SDS011;42155;53.096;23.226;2023-03-21T00:58:34;32.75;;;16.45;;
56242;SDS011;42155;53.096;23.226;2023-03-21T01:00:35;33.60;;;16.63;;
56242;SDS011;42155;53.096;23.226;2023-03-21T01:02:36;32.80;;;16.98;;
56242;SDS011;42155;53.096;23.226;2023-03-21T01:04:36;33.70;;;16.48;;
56242;SDS011;42155;53.096;23.226;2023-03-21T01:06:37;29.05;;;14.35;;
56242;SDS011;42155;53.096;23.226;2023-03-21T01:08:41;31.67;;;14.07;;
56242;SDS011;42155;53.096;23.226;2023-03-21T01:10:43;25.90;;;12.45;;
56242;SDS011;42155;53.096;23.226;2023-03-21T01:12:45;26.85;;;12.70;;
56242;SDS011;42155;53.096;23.226;2023-03-21T01:14:45;24.00;;;11.52;;
56242;SDS011;42155;53.096;23.226;2023-03-21T01:16:45;23.17;;;11.80;;
56242;SDS011;42155;53.096;23.226;2023-03-21T01:18:46;24.30;;;11.57;;
56242;SDS011;42155;53.096;23.226;2023-03-21T01:20:47;26.00;;;12.77;;
56242;SDS011;42155;53.096;23.226;2023-03-21T01:22:47;21.95;;;11.30;;
56242;SDS011;42155;53.096;23.226;2023-03-21T01:24:47;26.23;;;12.48;;
56242;SDS011;42155;53.096;23.226;2023-03-21T01:26:48;23.17;;;11.20;;
56242;SDS011;42155;53.096;23.226;2023-03-21T01:28:48;23.98;;;11.35;;
56242;SDS011;42155;53.096;23.226;2023-03-21T01:30:49;26.15;;;11.80;;
56242;SDS011;42155;53.096;23.226;2023-03-21T01:32:51;25.50;;;12.63;;
56242;SDS011;42155;53.096;23.226;2023-03-21T01:34:52;26.75;;;13.10;;
56242;SDS011;42155;53.096;23.226;2023-03-21T01:36:52;28.80;;;13.38;;
56242;SDS011;42155;53.096;23.226;2023-03-21T01:38:52;24.80;;;12.70;;
56242;SDS011;42155;53.096;23.226;2023-03-21T01:40:53;25.42;;;13.00;;
56242;SDS011;42155;53.096;23.226;2023-03-21T01:42:53;29.45;;;13.32;;
56242;SDS011;42155;53.096;23.226;2023-03-21T01:45:01;24.70;;;11.48;;
56242;SDS011;42155;53.096;23.226;2023-03-21T01:47:04;28.77;;;13.25;;
56242;SDS011;42155;53.096;23.226;2023-03-21T01:49:09;24.00;;;11.85;;
56242;SDS011;42155;53.096;23.226;2023-03-21T01:51:14;27.67;;;12.27;;
56242;SDS011;42155;53.096;23.226;2023-03-21T01:53:14;22.83;;;12.80;;
56242;SDS011;42155;53.096;23.226;2023-03-21T01:55:15;25.65;;;12.15;;
56242;SDS011;42155;53.096;23.226;2023-03-21T01:57:20;26.17;;;12.50;;
56242;SDS011;42155;53.096;23.226;2023-03-21T02:01:35;24.70;;;11.90;;
56242;SDS011;42155;53.096;23.226;2023-03-21T02:03:37;24.15;;;12.05;;
56242;SDS011;42155;53.096;23.226;2023-03-21T02:08:14;25.98;;;12.30;;
56242;SDS011;42155;53.096;23.226;2023-03-21T02:10:15;27.20;;;13.13;;
56242;SDS011;42155;53.096;23.226;2023-03-21T02:12:15;26.63;;;12.57;;
56242;SDS011;42155;53.096;23.226;2023-03-21T02:14:17;29.42;;;12.38;;
56242;SDS011;42155;53.096;23.226;2023-03-21T02:16:27;26.27;;;12.65;;
56242;SDS011;42155;53.096;23.226;2023-03-21T02:18:42;28.75;;;12.38;;
56242;SDS011;42155;53.096;23.226;2023-03-21T02:23:26;25.33;;;11.60;;
56242;SDS011;42155;53.096;23.226;2023-03-21T02:25:52;24.05;;;11.35;;
56242;SDS011;42155;53.096;23.226;2023-03-21T02:28:12;25.17;;;11.98;;
56242;SDS011;42155;53.096;23.226;2023-03-21T02:37:50;26.73;;;11.73;;
56242;SDS011;42155;53.096;23.226;2023-03-21T02:44:21;28.88;;;12.10;;
56242;SDS011;42155;53.096;23.226;2023-03-21T02:46:41;23.08;;;11.40;;
56242;SDS011;42155;53.096;23.226;2023-03-21T02:49:36;25.35;;;12.25;;
56242;SDS011;42155;53.096;23.226;2023-03-21T02:51:33;26.10;;;11.57;;
56242;SDS011;42155;53.096;23.226;2023-03-21T02:53:36;27.45;;;12.32;;
56242;SDS011;42155;53.096;23.226;2023-03-21T02:55:39;24.83;;;12.13;;
56242;SDS011;42155;53.096;23.226;2023-03-21T02:57:42;29.02;;;13.02;;
56242;SDS011;42155;53.096;23.226;2023-03-21T02:59:44;26.20;;;12.05;;
56242;SDS011;42155;53.096;23.226;2023-03-21T03:01:48;26.75;;;11.80;;
56242;SDS011;42155;53.096;23.226;2023-03-21T03:03:50;26.60;;;11.82;;
56242;SDS011;42155;53.096;23.226;2023-03-21T03:05:53;27.65;;;13.18;;
56242;SDS011;42155;53.096;23.226;2023-03-21T03:12:44;26.02;;;11.32;;
56242;SDS011;42155;53.096;23.226;2023-03-21T03:21:47;24.17;;;11.00;;
56242;SDS011;42155;53.096;23.226;2023-03-21T03:23:59;29.77;;;12.32;;
56242;SDS011;42155;53.096;23.226;2023-03-21T03:26:09;25.48;;;12.05;;
56242;SDS011;42155;53.096;23.226;2023-03-21T03:28:16;22.35;;;10.45;;
56242;SDS011;42155;53.096;23.226;2023-03-21T03:30:19;26.40;;;12.20;;
56242;SDS011;42155;53.096;23.226;2023-03-21T03:32:25;27.40;;;11.45;;
56242;SDS011;42155;53.096;23.226;2023-03-21T03:34:34;25.55;;;11.68;;
56242;SDS011;42155;53.096;23.226;2023-03-21T03:36:40;27.67;;;11.35;;
56242;SDS011;42155;53.096;23.226;2023-03-21T03:38:44;27.27;;;11.32;;
56242;SDS011;42155;53.096;23.226;2023-03-21T03:40:48;24.25;;;11.98;;
56242;SDS011;42155;53.096;23.226;2023-03-21T03:42:53;27.77;;;12.02;;
56242;SDS011;42155;53.096;23.226;2023-03-21T03:45:00;24.10;;;10.88;;
56242;SDS011;42155;53.096;23.226;2023-03-21T03:47:05;24.13;;;11.25;;
56242;SDS011;42155;53.096;23.226;2023-03-21T03:49:18;25.23;;;11.80;;
56242;SDS011;42155;53.096;23.226;2023-03-21T03:51:23;24.23;;;10.88;;
56242;SDS011;42155;53.096;23.226;2023-03-21T03:53:26;24.35;;;11.63;;
56242;SDS011;42155;53.096;23.226;2023-03-21T03:55:33;27.73;;;11.57;;
56242;SDS011;42155;53.096;23.226;2023-03-21T03:57:33;25.10;;;11.15;;
56242;SDS011;42155;53.096;23.226;2023-03-21T03:59:35;23.52;;;10.65;;
56242;SDS011;42155;53.096;23.226;2023-03-21T04:01:36;24.20;;;10.93;;
56242;SDS011;42155;53.096;23.226;2023-03-21T04:03:37;25.30;;;11.40;;
56242;SDS011;42155;53.096;23.226;2023-03-21T04:05:40;27.80;;;11.45;;
56242;SDS011;42155;53.096;23.226;2023-03-21T04:07:40;26.10;;;11.00;;
56242;SDS011;42155;53.096;23.226;2023-03-21T04:09:41;28.65;;;11.52;;
56242;SDS011;42155;53.096;23.226;2023-03-21T04:11:41;26.40;;;11.57;;
56242;SDS011;42155;53.096;23.226;2023-03-21T04:13:41;24.38;;;11.07;;
56242;SDS011;42155;53.096;23.226;2023-03-21T04:15:42;29.60;;;11.93;;
56242;SDS011;42155;53.096;23.226;2023-03-21T04:17:43;27.33;;;12.02;;
56242;SDS011;42155;53.096;23.226;2023-03-21T04:19:44;31.90;;;12.60;;
56242;SDS011;42155;53.096;23.226;2023-03-21T04:21:44;27.50;;;11.07;;
56242;SDS011;42155;53.096;23.226;2023-03-21T04:23:46;26.70;;;11.52;;
56242;SDS011;42155;53.096;23.226;2023-03-21T04:25:46;24.98;;;11.55;;
56242;SDS011;42155;53.096;23.226;2023-03-21T04:27:47;21.80;;;10.90;;
56242;SDS011;42155;53.096;23.226;2023-03-21T04:29:47;24.35;;;11.77;;
56242;SDS011;42155;53.096;23.226;2023-03-21T04:31:47;27.00;;;12.18;;
56242;SDS011;42155;53.096;23.226;2023-03-21T04:33:48;28.48;;;12.30;;
56242;SDS011;42155;53.096;23.226;2023-03-21T04:35:48;30.27;;;12.73;;
56242;SDS011;42155;53.096;23.226;2023-03-21T04:37:48;31.88;;;12.68;;
56242;SDS011;42155;53.096;23.226;2023-03-21T04:39:49;30.58;;;13.18;;
56242;SDS011;42155;53.096;23.226;2023-03-21T04:41:49;25.98;;;11.48;;
56242;SDS011;42155;53.096;23.226;2023-03-21T04:43:50;29.98;;;13.70;;
56242;SDS011;42155;53.096;23.226;2023-03-21T04:45:50;28.45;;;13.15;;
56242;SDS011;42155;53.096;23.226;2023-03-21T04:47:51;29.38;;;13.02;;
56242;SDS011;42155;53.096;23.226;2023-03-21T04:49:51;30.98;;;13.40;;
56242;SDS011;42155;53.096;23.226;2023-03-21T04:51:51;34.17;;;15.00;;
56242;SDS011;42155;53.096;23.226;2023-03-21T04:53:52;33.38;;;13.85;;
56242;SDS011;42155;53.096;23.226;2023-03-21T04:55:52;34.05;;;13.90;;
56242;SDS011;42155;53.096;23.226;2023-03-21T04:57:53;31.95;;;14.00;;
56242;SDS011;42155;53.096;23.226;2023-03-21T04:59:53;34.67;;;14.73;;
56242;SDS011;42155;53.096;23.226;2023-03-21T05:01:53;37.10;;;15.23;;
56242;SDS011;42155;53.096;23.226;2023-03-21T05:03:54;33.05;;;14.48;;
56242;SDS011;42155;53.096;23.226;2023-03-21T05:05:54;31.33;;;14.32;;
56242;SDS011;42155;53.096;23.226;2023-03-21T05:07:54;33.08;;;14.27;;
56242;SDS011;42155;53.096;23.226;2023-03-21T05:09:55;32.28;;;13.68;;
56242;SDS011;42155;53.096;23.226;2023-03-21T05:11:55;32.15;;;13.57;;
56242;SDS011;42155;53.096;23.226;2023-03-21T05:13:55;34.97;;;15.15;;
56242;SDS011;42155;53.096;23.226;2023-03-21T05:15:56;36.20;;;15.20;;
56242;SDS011;42155;53.096;23.226;2023-03-21T05:17:57;38.15;;;14.32;;
56242;SDS011;42155;53.096;23.226;2023-03-21T05:19:57;35.10;;;14.07;;
56242;SDS011;42155;53.096;23.226;2023-03-21T05:21:57;32.45;;;14.02;;
56242;SDS011;42155;53.096;23.226;2023-03-21T05:23:58;30.95;;;13.77;;
56242;SDS011;42155;53.096;23.226;2023-03-21T05:25:59;29.90;;;13.55;;
56242;SDS011;42155;53.096;23.226;2023-03-21T05:28:00;30.95;;;13.07;;
56242;SDS011;42155;53.096;23.226;2023-03-21T05:30:08;31.40;;;13.73;;
56242;SDS011;42155;53.096;23.226;2023-03-21T05:32:11;31.88;;;13.25;;
56242;SDS011;42155;53.096;23.226;2023-03-21T05:34:11;35.20;;;15.18;;
56242;SDS011;42155;53.096;23.226;2023-03-21T05:36:13;31.13;;;13.43;;
56242;SDS011;42155;53.096;23.226;2023-03-21T05:38:14;34.00;;;14.13;;
56242;SDS011;42155;53.096;23.226;2023-03-21T05:40:14;36.47;;;13.32;;
56242;SDS011;42155;53.096;23.226;2023-03-21T05:42:15;33.17;;;13.88;;
56242;SDS011;42155;53.096;23.226;2023-03-21T05:44:15;24.73;;;11.88;;
56242;SDS011;42155;53.096;23.226;2023-03-21T05:46:15;26.27;;;12.05;;
56242;SDS011;42155;53.096;23.226;2023-03-21T05:48:16;27.55;;;12.20;;
56242;SDS011;42155;53.096;23.226;2023-03-21T05:50:16;29.25;;;12.90;;
56242;SDS011;42155;53.096;23.226;2023-03-21T05:52:17;27.15;;;11.82;;
56242;SDS011;42155;53.096;23.226;2023-03-21T05:54:17;28.45;;;12.65;;
56242;SDS011;42155;53.096;23.226;2023-03-21T05:56:18;27.13;;;12.18;;
56242;SDS011;42155;53.096;23.226;2023-03-21T05:58:18;27.48;;;12.50;;
56242;SDS011;42155;53.096;23.226;2023-03-21T06:00:18;27.48;;;12.52;;
56242;SDS011;42155;53.096;23.226;2023-03-21T06:02:19;34.70;;;14.88;;
56242;SDS011;42155;53.096;23.226;2023-03-21T06:04:19;20.77;;;10.07;;
56242;SDS011;42155;53.096;23.226;2023-03-21T06:06:19;20.55;;;9.82;;
56242;SDS011;42155;53.096;23.226;2023-03-21T06:08:20;22.30;;;10.75;;
56242;SDS011;42155;53.096;23.226;2023-03-21T06:10:20;19.38;;;9.90;;
56242;SDS011;42155;53.096;23.226;2023-03-21T06:12:21;21.67;;;9.43;;
56242;SDS011;42155;53.096;23.226;2023-03-21T06:14:22;22.05;;;9.75;;
56242;SDS011;42155;53.096;23.226;2023-03-21T06:16:23;18.30;;;9.10;;
56242;SDS011;42155;53.096;23.226;2023-03-21T06:18:23;18.40;;;8.77;;
56242;SDS011;42155;53.096;23.226;2023-03-21T06:20:24;18.13;;;9.00;;
56242;SDS011;42155;53.096;23.226;2023-03-21T06:22:24;19.55;;;9.45;;
56242;SDS011;42155;53.096;23.226;2023-03-21T06:24:24;21.00;;;9.40;;
56242;SDS011;42155;53.096;23.226;2023-03-21T06:26:25;18.65;;;8.43;;
56242;SDS011;42155;53.096;23.226;2023-03-21T06:28:25;20.80;;;8.85;;
56242;SDS011;42155;53.096;23.226;2023-03-21T06:30:25;20.95;;;9.65;;
56242;SDS011;42155;53.096;23.226;2023-03-21T06:32:26;20.75;;;10.15;;
56242;SDS011;42155;53.096;23.226;2023-03-21T06:34:26;19.45;;;9.48;;
56242;SDS011;42155;53.096;23.226;2023-03-21T06:36:27;20.17;;;9.60;;
56242;SDS011;42155;53.096;23.226;2023-03-21T06:38:27;20.13;;;10.48;;
56242;SDS011;42155;53.096;23.226;2023-03-21T06:40:27;19.15;;;10.10;;
56242;SDS011;42155;53.096;23.226;2023-03-21T06:42:28;19.25;;;9.52;;
56242;SDS011;42155;53.096;23.226;2023-03-21T06:44:28;19.75;;;10.10;;
56242;SDS011;42155;53.096;23.226;2023-03-21T06:46:29;20.30;;;10.50;;
56242;SDS011;42155;53.096;23.226;2023-03-21T06:48:30;16.80;;;8.73;;
56242;SDS011;42155;53.096;23.226;2023-03-21T06:50:31;16.15;;;8.63;;
56242;SDS011;42155;53.096;23.226;2023-03-21T06:52:32;12.45;;;6.53;;
56242;SDS011;42155;53.096;23.226;2023-03-21T06:54:32;16.13;;;7.90;;
56242;SDS011;42155;53.096;23.226;2023-03-21T06:56:32;14.57;;;7.18;;
56242;SDS011;42155;53.096;23.226;2023-03-21T06:58:33;12.88;;;6.70;;
56242;SDS011;42155;53.096;23.226;2023-03-21T07:00:33;12.10;;;6.78;;
56242;SDS011;42155;53.096;23.226;2023-03-21T07:02:33;10.45;;;5.30;;
56242;SDS011;42155;53.096;23.226;2023-03-21T07:04:34;12.27;;;6.15;;
56242;SDS011;42155;53.096;23.226;2023-03-21T07:06:34;11.82;;;6.05;;
56242;SDS011;42155;53.096;23.226;2023-03-21T07:08:35;12.70;;;6.40;;
56242;SDS011;42155;53.096;23.226;2023-03-21T07:10:38;12.55;;;6.75;;
56242;SDS011;42155;53.096;23.226;2023-03-21T07:12:41;12.07;;;6.40;;
56242;SDS011;42155;53.096;23.226;2023-03-21T07:14:42;9.75;;;5.55;;
56242;SDS011;42155;53.096;23.226;2023-03-21T07:16:42;9.68;;;5.60;;
56242;SDS011;42155;53.096;23.226;2023-03-21T07:18:43;11.65;;;5.63;;
56242;SDS011;42155;53.096;23.226;2023-03-21T07:20:47;11.55;;;5.93;;
56242;SDS011;42155;53.096;23.226;2023-03-21T07:22:48;10.25;;;5.70;;
56242;SDS011;42155;53.096;23.226;2023-03-21T07:24:49;9.25;;;5.30;;
56242;SDS011;42155;53.096;23.226;2023-03-21T07:26:49;10.70;;;6.13;;
56242;SDS011;42155;53.096;23.226;2023-03-21T07:28:49;12.93;;;6.10;;
56242;SDS011;42155;53.096;23.226;2023-03-21T07:30:51;11.02;;;6.57;;
56242;SDS011;42155;53.096;23.226;2023-03-21T07:32:53;11.77;;;6.40;;
56242;SDS011;42155;53.096;23.226;2023-03-21T07:34:54;12.20;;;6.22;;
56242;SDS011;42155;53.096;23.226;2023-03-21T07:36:54;14.45;;;7.55;;
56242;SDS011;42155;53.096;23.226;2023-03-21T07:38:55;11.65;;;6.45;;
56242;SDS011;42155;53.096;23.226;2023-03-21T07:40:57;14.95;;;6.93;;
56242;SDS011;42155;53.096;23.226;2023-03-21T07:42:58;14.23;;;7.80;;
56242;SDS011;42155;53.096;23.226;2023-03-21T07:44:59;13.40;;;7.18;;
56242;SDS011;42155;53.096;23.226;2023-03-21T07:46:59;13.90;;;6.03;;
56242;SDS011;42155;53.096;23.226;2023-03-21T07:49:00;13.18;;;7.45;;
56242;SDS011;42155;53.096;23.226;2023-03-21T07:51:00;12.77;;;6.95;;
56242;SDS011;42155;53.096;23.226;2023-03-21T07:53:00;13.00;;;6.80;;
56242;SDS011;42155;53.096;23.226;2023-03-21T07:55:01;13.77;;;7.70;;
56242;SDS011;42155;53.096;23.226;2023-03-21T07:57:01;13.57;;;7.25;;
56242;SDS011;42155;53.096;23.226;2023-03-21T07:59:01;12.43;;;7.05;;
56242;SDS011;42155;53.096;23.226;2023-03-21T08:01:02;12.27;;;6.40;;
56242;SDS011;42155;53.096;23.226;2023-03-21T08:03:02;11.82;;;5.93;;
56242;SDS011;42155;53.096;23.226;2023-03-21T08:05:03;11.57;;;6.38;;
56242;SDS011;42155;53.096;23.226;2023-03-21T08:07:03;10.02;;;5.60;;
56242;SDS011;42155;53.096;23.226;2023-03-21T08:09:04;9.98;;;5.70;;
56242;SDS011;42155;53.096;23.226;2023-03-21T08:11:04;10.13;;;5.38;;
56242;SDS011;42155;53.096;23.226;2023-03-21T08:13:05;9.88;;;5.70;;
56242;SDS011;42155;53.096;23.226;2023-03-21T08:15:06;10.70;;;5.72;;
56242;SDS011;42155;53.096;23.226;2023-03-21T08:17:07;9.82;;;5.28;;
56242;SDS011;42155;53.096;23.226;2023-03-21T08:19:08;7.57;;;5.00;;
56242;SDS011;42155;53.096;23.226;2023-03-21T08:21:08;9.73;;;5.07;;
56242;SDS011;42155;53.096;23.226;2023-03-21T08:23:09;10.57;;;5.53;;
56242;SDS011;42155;53.096;23.226;2023-03-21T08:25:10;9.70;;;5.63;;
56242;SDS011;42155;53.096;23.226;2023-03-21T08:27:12;10.30;;;5.35;;
56242;SDS011;42155;53.096;23.226;2023-03-21T08:29:12;11.30;;;5.35;;
56242;SDS011;42155;53.096;23.226;2023-03-21T08:31:12;13.07;;;6.40;;
56242;SDS011;42155;53.096;23.226;2023-03-21T08:33:13;9.18;;;5.65;;
56242;SDS011;42155;53.096;23.226;2023-03-21T08:35:15;9.93;;;5.88;;
56242;SDS011;42155;53.096;23.226;2023-03-21T08:37:16;10.18;;;5.57;;
56242;SDS011;42155;53.096;23.226;2023-03-21T08:39:16;9.45;;;5.10;;
56242;SDS011;42155;53.096;23.226;2023-03-21T08:41:17;11.73;;;6.15;;
56242;SDS011;42155;53.096;23.226;2023-03-21T08:43:17;9.30;;;5.65;;
56242;SDS011;42155;53.096;23.226;2023-03-21T08:45:17;9.57;;;5.35;;
56242;SDS011;42155;53.096;23.226;2023-03-21T08:47:18;11.77;;;5.88;;
56242;SDS011;42155;53.096;23.226;2023-03-21T08:49:18;9.07;;;5.32;;
56242;SDS011;42155;53.096;23.226;2023-03-21T08:51:19;9.95;;;5.93;;
56242;SDS011;42155;53.096;23.226;2023-03-21T08:53:19;10.35;;;5.97;;
56242;SDS011;42155;53.096;23.226;2023-03-21T08:55:19;11.65;;;5.75;;
56242;SDS011;42155;53.096;23.226;2023-03-21T08:57:20;9.32;;;5.80;;
56242;SDS011;42155;53.096;23.226;2023-03-21T08:59:20;11.48;;;6.03;;
56242;SDS011;42155;53.096;23.226;2023-03-21T09:01:21;10.50;;;6.55;;
56242;SDS011;42155;53.096;23.226;2023-03-21T09:03:21;10.25;;;6.00;;
56242;SDS011;42155;53.096;23.226;2023-03-21T09:05:21;9.70;;;5.50;;
56242;SDS011;42155;53.096;23.226;2023-03-21T09:07:22;8.15;;;5.15;;
56242;SDS011;42155;53.096;23.226;2023-03-21T09:09:22;8.55;;;5.10;;
56242;SDS011;42155;53.096;23.226;2023-03-21T09:11:22;7.93;;;4.93;;
56242;SDS011;42155;53.096;23.226;2023-03-21T09:13:23;10.25;;;5.15;;
56242;SDS011;42155;53.096;23.226;2023-03-21T09:15:24;10.13;;;5.63;;
56242;SDS011;42155;53.096;23.226;2023-03-21T09:17:25;7.85;;;4.97;;
56242;SDS011;42155;53.096;23.226;2023-03-21T09:19:26;6.97;;;4.32;;
56242;SDS011;42155;53.096;23.226;2023-03-21T09:21:27;7.40;;;4.35;;
56242;SDS011;42155;53.096;23.226;2023-03-21T09:23:27;5.82;;;3.65;;
56242;SDS011;42155;53.096;23.226;2023-03-21T09:25:27;8.15;;;4.45;;
56242;SDS011;42155;53.096;23.226;2023-03-21T09:27:28;6.53;;;4.05;;
56242;SDS011;42155;53.096;23.226;2023-03-21T09:29:28;6.55;;;3.80;;
56242;SDS011;42155;53.096;23.226;2023-03-21T09:31:28;9.63;;;5.07;;
56242;SDS011;42155;53.096;23.226;2023-03-21T09:33:29;10.23;;;4.53;;
56242;SDS011;42155;53.096;23.226;2023-03-21T09:35:29;8.00;;;4.63;;
56242;SDS011;42155;53.096;23.226;2023-03-21T09:37:29;8.38;;;4.05;;
56242;SDS011;42155;53.096;23.226;2023-03-21T09:39:30;8.65;;;4.20;;
56242;SDS011;42155;53.096;23.226;2023-03-21T09:43:44;7.32;;;4.30;;
56242;SDS011;42155;53.096;23.226;2023-03-21T09:45:49;6.10;;;3.65;;
56242;SDS011;42155;53.096;23.226;2023-03-21T09:47:57;7.00;;;4.53;;
56242;SDS011;42155;53.096;23.226;2023-03-21T09:49:58;5.43;;;3.33;;
56242;SDS011;42155;53.096;23.226;2023-03-21T09:52:08;7.65;;;4.03;;
56242;SDS011;42155;53.096;23.226;2023-03-21T09:54:20;6.95;;;4.13;;
56242;SDS011;42155;53.096;23.226;2023-03-21T09:56:21;6.43;;;3.60;;
56242;SDS011;42155;53.096;23.226;2023-03-21T10:00:29;7.57;;;3.85;;
56242;SDS011;42155;53.096;23.226;2023-03-21T10:02:39;6.57;;;3.78;;
56242;SDS011;42155;53.096;23.226;2023-03-21T10:04:46;6.43;;;3.58;;
56242;SDS011;42155;53.096;23.226;2023-03-21T10:06:50;7.28;;;3.67;;
56242;SDS011;42155;53.096;23.226;2023-03-21T10:08:56;7.47;;;4.30;;
56242;SDS011;42155;53.096;23.226;2023-03-21T10:11:14;7.68;;;3.88;;
56242;SDS011;42155;53.096;23.226;2023-03-21T10:13:33;6.38;;;3.85;;
56242;SDS011;42155;53.096;23.226;2023-03-21T10:15:38;7.55;;;4.53;;
56242;SDS011;42155;53.096;23.226;2023-03-21T10:17:39;6.13;;;4.25;;
56242;SDS011;42155;53.096;23.226;2023-03-21T10:19:45;8.48;;;4.53;;
56242;SDS011;42155;53.096;23.226;2023-03-21T10:21:46;7.65;;;3.85;;
56242;SDS011;42155;53.096;23.226;2023-03-21T10:23:49;7.57;;;3.90;;
56242;SDS011;42155;53.096;23.226;2023-03-21T10:25:54;7.05;;;3.83;;
56242;SDS011;42155;53.096;23.226;2023-03-21T10:27:56;8.55;;;3.63;;
56242;SDS011;42155;53.096;23.226;2023-03-21T10:29:58;4.95;;;3.03;;
56242;SDS011;42155;53.096;23.226;2023-03-21T10:31:58;5.03;;;2.97;;
56242;SDS011;42155;53.096;23.226;2023-03-21T10:34:01;4.60;;;2.67;;
56242;SDS011;42155;53.096;23.226;2023-03-21T10:36:09;6.28;;;3.22;;
56242;SDS011;42155;53.096;23.226;2023-03-21T10:38:14;7.45;;;3.28;;
56242;SDS011;42155;53.096;23.226;2023-03-21T10:40:17;6.25;;;3.50;;
56242;SDS011;42155;53.096;23.226;2023-03-21T10:42:21;8.82;;;4.03;;
56242;SDS011;42155;53.096;23.226;2023-03-21T10:44:28;9.35;;;4.55;;
56242;SDS011;42155;53.096;23.226;2023-03-21T10:46:30;10.32;;;5.57;;
56242;SDS011;42155;53.096;23.226;2023-03-21T10:48:33;15.00;;;6.63;;
56242;SDS011;42155;53.096;23.226;2023-03-21T10:50:36;10.68;;;4.70;;
56242;SDS011;42155;53.096;23.226;2023-03-21T10:52:37;10.95;;;4.80;;
56242;SDS011;42155;53.096;23.226;2023-03-21T10:54:50;8.15;;;4.60;;
56242;SDS011;42155;53.096;23.226;2023-03-21T10:57:24;8.07;;;4.13;;
56242;SDS011;42155;53.096;23.226;2023-03-21T10:59:25;6.45;;;3.70;;
56242;SDS011;42155;53.096;23.226;2023-03-21T11:01:30;7.53;;;4.20;;
56242;SDS011;42155;53.096;23.226;2023-03-21T11:03:36;9.18;;;4.03;;
56242;SDS011;42155;53.096;23.226;2023-03-21T11:05:39;9.77;;;4.32;;
56242;SDS011;42155;53.096;23.226;2023-03-21T11:07:40;5.78;;;3.70;;
56242;SDS011;42155;53.096;23.226;2023-03-21T11:09:43;7.43;;;4.10;;
56242;SDS011;42155;53.096;23.226;2023-03-21T11:12:07;7.38;;;4.32;;
56242;SDS011;42155;53.096;23.226;2023-03-21T11:14:23;7.10;;;4.15;;
56242;SDS011;42155;53.096;23.226;2023-03-21T11:16:38;7.07;;;3.88;;
56242;SDS011;42155;53.096;23.226;2023-03-21T11:18:41;5.75;;;3.65;;
56242;SDS011;42155;53.096;23.226;2023-03-21T11:21:09;6.20;;;3.33;;
56242;SDS011;42155;53.096;23.226;2023-03-21T11:23:11;5.05;;;2.92;;
56242;SDS011;42155;53.096;23.226;2023-03-21T11:25:23;4.68;;;2.97;;
56242;SDS011;42155;53.096;23.226;2023-03-21T11:27:31;6.32;;;3.33;;
56242;SDS011;42155;53.096;23.226;2023-03-21T11:29:33;6.00;;;3.22;;
56242;SDS011;42155;53.096;23.226;2023-03-21T11:31:38;7.85;;;3.10;;
56242;SDS011;42155;53.096;23.226;2023-03-21T11:33:57;8.32;;;3.83;;
56242;SDS011;42155;53.096;23.226;2023-03-21T11:36:04;9.30;;;3.92;;
56242;SDS011;42155;53.096;23.226;2023-03-21T11:38:05;8.18;;;3.30;;
56242;SDS011;42155;53.096;23.226;2023-03-21T11:40:25;6.70;;;3.38;;
56242;SDS011;42155;53.096;23.226;2023-03-21T11:42:30;7.05;;;3.70;;
56242;SDS011;42155;53.096;23.226;2023-03-21T11:44:42;6.03;;;3.38;;
56242;SDS011;42155;53.096;23.226;2023-03-21T11:46:43;7.00;;;3.58;;
56242;SDS011;42155;53.096;23.226;2023-03-21T11:48:45;6.22;;;3.42;;
56242;SDS011;42155;53.096;23.226;2023-03-21T11:50:46;6.75;;;3.38;;
56242;SDS011;42155;53.096;23.226;2023-03-21T12:06:29;4.40;;;3.00;;
56242;SDS011;42155;53.096;23.226;2023-03-21T12:08:46;5.20;;;3.33;;
56242;SDS011;42155;53.096;23.226;2023-03-21T12:16:18;7.22;;;3.40;;
56242;SDS011;42155;53.096;23.226;2023-03-21T12:20:58;5.70;;;3.22;;
56242;SDS011;42155;53.096;23.226;2023-03-21T12:23:18;7.65;;;3.90;;
56242;SDS011;42155;53.096;23.226;2023-03-21T12:34:57;8.43;;;3.22;;
56242;SDS011;42155;53.096;23.226;2023-03-21T12:39:36;5.65;;;3.38;;
56242;SDS011;42155;53.096;23.226;2023-03-21T12:41:49;5.32;;;2.97;;
56242;SDS011;42155;53.096;23.226;2023-03-21T12:43:55;5.80;;;2.92;;
56242;SDS011;42155;53.096;23.226;2023-03-21T12:48:16;6.37;;;3.07;;
56242;SDS011;42155;53.096;23.226;2023-03-21T12:50:28;5.50;;;3.28;;
56242;SDS011;42155;53.096;23.226;2023-03-21T12:52:34;10.90;;;2.95;;
56242;SDS011;42155;53.096;23.226;2023-03-21T12:57:01;7.97;;;4.53;;
56242;SDS011;42155;53.096;23.226;2023-03-21T12:59:48;9.07;;;4.25;;
56242;SDS011;42155;53.096;23.226;2023-03-21T13:02:02;6.45;;;3.88;;
56242;SDS011;42155;53.096;23.226;2023-03-21T13:06:41;5.30;;;2.95;;
56242;SDS011;42155;53.096;23.226;2023-03-21T13:08:57;4.93;;;2.95;;
56242;SDS011;42155;53.096;23.226;2023-03-21T13:11:02;4.68;;;2.75;;
56242;SDS011;42155;53.096;23.226;2023-03-21T13:13:16;5.18;;;3.08;;